Time;durP1;ratioP1;P1;durP2;ratioP2;P2;SDS_P1;SDS_P2;PMS_P1;PMS_P2;Temp;Humidity;BMP_temperature;BMP_pressure;BME280_temperature;BME280_humidity;BME280_pressure;Samples;Min_cycle;Max_cycle;Signal;HPM_P1;HPM_P2
2022/02/18 00:02:05;;;;;;;18.20;2.60;;;;;;;;;;5039128;28;20538;-67
2022/02/18 00:04:31;;;;;;;19.27;2.93;;;;;;;;;;5041931;28;20540;-67
2022/02/18 00:06:56;;;;;;;16.33;2.40;;;;;;;;;;5044829;28;20240;-68
2022/02/18 00:09:21;;;;;;;19.23;3.00;;;;;;;;;;5044130;28;20204;-69
2022/02/18 00:11:47;;;;;;;17.30;3.03;;;;;;;;;;5042842;28;20256;-67
2022/02/18 00:14:12;;;;;;;24.80;2.90;;;;;;;;;;5036492;28;20300;-67
2022/02/18 00:16:37;;;;;;;16.10;2.40;;;;;;;;;;5040423;28;20256;-68
2022/02/18 00:19:03;;;;;;;20.43;3.10;;;;;;;;;;5038649;28;20182;-67
2022/02/18 00:21:28;;;;;;;21.43;3.23;;;;;;;;;;5048218;28;20321;-67
2022/02/18 00:23:53;;;;;;;18.07;2.90;;;;;;;;;;5043318;28;20668;-67
2022/02/18 00:26:19;;;;;;;17.17;3.00;;;;;;;;;;5042941;28;20207;-67
2022/02/18 00:28:45;;;;;;;22.67;2.67;;;;;;;;;;5038828;28;20193;-67
2022/02/18 00:31:11;;;;;;;15.80;2.63;;;;;;;;;;5041615;28;20197;-67
2022/02/18 00:33:37;;;;;;;15.33;3.60;;;;;;;;;;5045227;28;20273;-67
2022/02/18 00:36:02;;;;;;;17.23;3.37;;;;;;;;;;5040968;28;20322;-67
2022/02/18 00:38:28;;;;;;;14.90;2.67;;;;;;;;;;5033291;28;20612;-67
2022/02/18 00:40:53;;;;;;;25.87;2.87;;;;;;;;;;5042155;28;20234;-68
2022/02/18 00:43:18;;;;;;;16.50;2.67;;;;;;;;;;5044223;28;20268;-67
2022/02/18 00:45:44;;;;;;;14.90;2.43;;;;;;;;;;5042301;28;20181;-68
2022/02/18 00:48:09;;;;;;;12.80;2.07;;;;;;;;;;5039298;28;20209;-68
2022/02/18 00:50:35;;;;;;;27.70;4.23;;;;;;;;;;5047222;28;20223;-68
2022/02/18 00:53:02;;;;;;;18.33;2.70;;;;;;;;;;5055720;28;20181;-68
2022/02/18 00:55:28;;;;;;;19.93;3.07;;;;;;;;;;5041550;28;20198;-67
2022/02/18 00:57:53;;;;;;;16.10;2.57;;;;;;;;;;5042952;28;20200;-67
2022/02/18 01:00:20;;;;;;;25.73;3.27;;;;;;;;;;5040532;28;20194;-68
2022/02/18 01:02:45;;;;;;;19.37;2.70;;;;;;;;;;5041455;28;20220;-67
2022/02/18 01:05:10;;;;;;;17.67;3.07;;;;;;;;;;5041295;28;20186;-67
2022/02/18 01:07:36;;;;;;;21.97;2.80;;;;;;;;;;5040440;28;20213;-67
2022/02/18 01:10:04;;;;;;;21.33;2.67;;;;;;;;;;5040802;28;20721;-68
2022/02/18 01:12:29;;;;;;;16.93;2.73;;;;;;;;;;5039357;28;20190;-67
2022/02/18 01:14:55;;;;;;;17.63;2.57;;;;;;;;;;5040210;28;20205;-67
2022/02/18 01:17:20;;;;;;;16.47;2.73;;;;;;;;;;5041024;28;20189;-67
2022/02/18 01:19:46;;;;;;;21.83;2.70;;;;;;;;;;5041524;28;20181;-68
2022/02/18 01:22:11;;;;;;;27.70;3.23;;;;;;;;;;5043830;28;20181;-68
2022/02/18 01:24:37;;;;;;;19.50;3.07;;;;;;;;;;5038837;28;20254;-68
2022/02/18 01:27:03;;;;;;;23.57;2.90;;;;;;;;;;5042162;28;20213;-68
2022/02/18 01:29:28;;;;;;;19.47;3.27;;;;;;;;;;5040783;28;20660;-68
2022/02/18 01:31:53;;;;;;;19.33;2.80;;;;;;;;;;5041777;28;20201;-68
2022/02/18 01:34:19;;;;;;;17.87;2.83;;;;;;;;;;5039694;28;20342;-68
2022/02/18 01:36:44;;;;;;;18.03;2.70;;;;;;;;;;5048515;28;20187;-67
2022/02/18 01:39:10;;;;;;;15.77;2.40;;;;;;;;;;5043946;28;20606;-68
2022/02/18 01:41:36;;;;;;;19.70;3.27;;;;;;;;;;5044751;28;20539;-67
2022/02/18 01:44:05;;;;;;;21.47;3.83;;;;;;;;;;5044709;28;20190;-67
2022/02/18 01:46:31;;;;;;;23.53;2.90;;;;;;;;;;5038732;28;20289;-67
2022/02/18 01:48:56;;;;;;;18.37;2.83;;;;;;;;;;5041934;28;20539;-67
2022/02/18 01:51:23;;;;;;;22.33;3.07;;;;;;;;;;5048046;28;20189;-68
2022/02/18 01:53:49;;;;;;;22.23;3.37;;;;;;;;;;5045629;28;20195;-68
2022/02/18 01:56:17;;;;;;;18.77;2.10;;;;;;;;;;5044022;28;20472;-68
2022/02/18 01:58:42;;;;;;;16.23;3.57;;;;;;;;;;5042927;28;20185;-68
2022/02/18 02:01:11;;;;;;;16.50;2.20;;;;;;;;;;5046135;28;20189;-68
2022/02/18 02:03:37;;;;;;;20.07;2.67;;;;;;;;;;5045706;28;20181;-68
2022/02/18 02:06:04;;;;;;;18.87;3.03;;;;;;;;;;5044285;28;20282;-67
2022/02/18 02:08:33;;;;;;;24.07;2.83;;;;;;;;;;5040754;28;20708;-68
2022/02/18 02:10:59;;;;;;;15.30;2.80;;;;;;;;;;5043300;28;20711;-67
2022/02/18 02:13:33;;;;;;;21.63;2.50;;;;;;;;;;5045955;28;20276;-67
2022/02/18 02:15:59;;;;;;;18.40;2.40;;;;;;;;;;5042949;28;20184;-67
2022/02/18 02:18:25;;;;;;;18.70;2.27;;;;;;;;;;5044180;28;20858;-68
2022/02/18 02:20:51;;;;;;;22.27;2.47;;;;;;;;;;5046674;28;20174;-67
2022/02/18 02:23:17;;;;;;;20.57;2.60;;;;;;;;;;5047370;28;20703;-68
2022/02/18 02:25:42;;;;;;;17.63;2.73;;;;;;;;;;5041252;28;20209;-68
2022/02/18 02:28:08;;;;;;;15.13;2.30;;;;;;;;;;5041991;28;20209;-67
2022/02/18 02:30:33;;;;;;;17.10;2.50;;;;;;;;;;5048182;28;20288;-67
2022/02/18 02:32:59;;;;;;;20.80;3.33;;;;;;;;;;5049074;28;20185;-67
2022/02/18 02:35:24;;;;;;;19.93;3.17;;;;;;;;;;5044965;28;20166;-67
2022/02/18 02:37:49;;;;;;;11.63;1.97;;;;;;;;;;5043837;28;20196;-67
2022/02/18 02:40:18;;;;;;;15.27;2.10;;;;;;;;;;5046976;28;20181;-67
2022/02/18 02:42:45;;;;;;;15.13;2.30;;;;;;;;;;5047625;28;20296;-67
2022/02/18 02:45:10;;;;;;;18.17;2.20;;;;;;;;;;5045816;28;20289;-67
2022/02/18 02:47:38;;;;;;;19.50;2.77;;;;;;;;;;5045612;28;20723;-68
2022/02/18 02:50:04;;;;;;;13.60;2.13;;;;;;;;;;5046325;28;20767;-67
2022/02/18 02:52:30;;;;;;;19.00;2.83;;;;;;;;;;5048674;28;20257;-67
2022/02/18 02:54:55;;;;;;;16.17;2.87;;;;;;;;;;5045699;28;20330;-67
2022/02/18 02:57:20;;;;;;;18.40;3.23;;;;;;;;;;5034742;28;20599;-67
2022/02/18 02:59:46;;;;;;;13.90;2.33;;;;;;;;;;5045627;28;20641;-67
2022/02/18 03:02:11;;;;;;;18.70;2.47;;;;;;;;;;5039889;28;20193;-67
2022/02/18 03:04:36;;;;;;;15.27;2.40;;;;;;;;;;5044559;28;20189;-67
2022/02/18 03:07:02;;;;;;;18.33;3.13;;;;;;;;;;5039149;28;20280;-67
2022/02/18 03:09:27;;;;;;;12.63;2.57;;;;;;;;;;5044093;28;20184;-67
2022/02/18 03:11:52;;;;;;;15.90;2.50;;;;;;;;;;5046988;28;20664;-67
2022/02/18 03:14:18;;;;;;;17.87;2.73;;;;;;;;;;5043886;28;20268;-67
2022/02/18 03:16:43;;;;;;;24.40;3.60;;;;;;;;;;5047497;28;20174;-67
2022/02/18 03:19:08;;;;;;;12.93;2.60;;;;;;;;;;5045570;28;20182;-67
2022/02/18 03:21:34;;;;;;;14.53;2.43;;;;;;;;;;5048898;28;20177;-68
2022/02/18 03:23:59;;;;;;;14.63;3.10;;;;;;;;;;5042538;28;20295;-67
2022/02/18 03:26:24;;;;;;;20.33;3.17;;;;;;;;;;5046310;28;20201;-66
2022/02/18 03:28:50;;;;;;;16.33;3.00;;;;;;;;;;5041256;28;20471;-67
2022/02/18 03:31:15;;;;;;;21.13;3.07;;;;;;;;;;5045521;28;20196;-67
2022/02/18 03:33:42;;;;;;;19.07;2.87;;;;;;;;;;5044840;28;20560;-68
2022/02/18 03:36:08;;;;;;;16.60;3.60;;;;;;;;;;5046708;28;20182;-68
2022/02/18 03:38:34;;;;;;;18.17;3.07;;;;;;;;;;5042598;28;21263;-67
2022/02/18 03:41:00;;;;;;;18.90;2.83;;;;;;;;;;5048831;28;20212;-67
2022/02/18 03:43:26;;;;;;;16.37;3.17;;;;;;;;;;5042518;28;20182;-67
2022/02/18 03:45:51;;;;;;;16.37;3.00;;;;;;;;;;5042264;28;20658;-67
2022/02/18 03:48:16;;;;;;;14.73;3.90;;;;;;;;;;5039389;28;20192;-67
2022/02/18 03:50:42;;;;;;;17.17;3.77;;;;;;;;;;5051135;28;20655;-67
2022/02/18 03:53:07;;;;;;;16.50;3.40;;;;;;;;;;5040451;28;20190;-67
2022/02/18 03:55:33;;;;;;;17.07;3.20;;;;;;;;;;5045782;28;20186;-68
2022/02/18 03:57:58;;;;;;;25.30;3.77;;;;;;;;;;5042275;28;20185;-67
2022/02/18 04:00:24;;;;;;;20.63;3.47;;;;;;;;;;5044486;28;20260;-67
2022/02/18 04:02:50;;;;;;;23.33;3.60;;;;;;;;;;5044663;28;20182;-67
2022/02/18 04:05:15;;;;;;;17.77;3.70;;;;;;;;;;5044089;28;20184;-67
2022/02/18 04:07:41;;;;;;;19.50;3.37;;;;;;;;;;5042872;28;20276;-66
2022/02/18 04:10:06;;;;;;;19.63;4.53;;;;;;;;;;5044973;28;20186;-68
2022/02/18 04:12:32;;;;;;;19.20;3.33;;;;;;;;;;5040577;28;20221;-67
2022/02/18 04:14:57;;;;;;;19.03;3.63;;;;;;;;;;5046793;28;20533;-67
2022/02/18 04:17:24;;;;;;;23.60;4.10;;;;;;;;;;5047934;28;20181;-68
2022/02/18 04:19:49;;;;;;;20.30;5.03;;;;;;;;;;5044087;28;20272;-67
2022/02/18 04:22:14;;;;;;;23.50;5.20;;;;;;;;;;5042304;28;20285;-67
2022/02/18 04:24:40;;;;;;;20.53;4.53;;;;;;;;;;5043211;28;20184;-67
2022/02/18 04:27:05;;;;;;;19.27;4.50;;;;;;;;;;5041238;28;20208;-67
2022/02/18 04:29:31;;;;;;;19.10;4.27;;;;;;;;;;5043755;28;20185;-67
2022/02/18 04:31:56;;;;;;;20.17;4.90;;;;;;;;;;5045334;28;20208;-67
2022/02/18 04:34:21;;;;;;;19.43;5.00;;;;;;;;;;5040334;28;20185;-67
2022/02/18 04:36:47;;;;;;;19.50;5.27;;;;;;;;;;5048236;28;20185;-66
2022/02/18 04:39:12;;;;;;;25.40;4.90;;;;;;;;;;5041869;28;20181;-66
2022/02/18 04:41:38;;;;;;;25.53;5.07;;;;;;;;;;5036477;28;20608;-67
2022/02/18 04:44:04;;;;;;;14.40;4.83;;;;;;;;;;5038440;28;20192;-67
2022/02/18 04:46:30;;;;;;;24.57;6.37;;;;;;;;;;5045984;28;20597;-67
2022/02/18 04:48:55;;;;;;;26.97;6.00;;;;;;;;;;5043322;28;20185;-67
2022/02/18 04:51:22;;;;;;;16.30;5.33;;;;;;;;;;5054306;28;20209;-67
2022/02/18 04:53:47;;;;;;;24.33;5.17;;;;;;;;;;5042906;28;20193;-67
2022/02/18 04:56:12;;;;;;;22.43;5.10;;;;;;;;;;5040239;28;20545;-68
2022/02/18 04:58:38;;;;;;;18.13;5.50;;;;;;;;;;5044858;28;20874;-68
2022/02/18 05:01:04;;;;;;;21.47;4.40;;;;;;;;;;5053867;28;20177;-66
2022/02/18 05:03:30;;;;;;;23.87;4.57;;;;;;;;;;5042730;28;20296;-67
2022/02/18 05:05:55;;;;;;;24.93;4.77;;;;;;;;;;5048307;28;20260;-67
2022/02/18 05:08:21;;;;;;;26.70;5.27;;;;;;;;;;5040370;28;20275;-67
2022/02/18 05:10:46;;;;;;;22.67;5.03;;;;;;;;;;5040075;28;20646;-67
2022/02/18 05:13:11;;;;;;;21.90;5.00;;;;;;;;;;5043659;28;20212;-67
2022/02/18 05:15:37;;;;;;;30.13;4.90;;;;;;;;;;5050794;28;20192;-68
2022/02/18 05:18:03;;;;;;;21.53;4.37;;;;;;;;;;5044986;28;20186;-67
2022/02/18 05:20:30;;;;;;;27.87;4.53;;;;;;;;;;5053953;28;20258;-67
2022/02/18 05:22:55;;;;;;;27.07;4.67;;;;;;;;;;5051210;28;20414;-67
2022/02/18 05:25:21;;;;;;;19.47;4.33;;;;;;;;;;5063339;28;20185;-67
2022/02/18 05:27:47;;;;;;;22.17;3.77;;;;;;;;;;5050607;28;20288;-67
2022/02/18 05:30:13;;;;;;;24.50;4.47;;;;;;;;;;5055543;28;20369;-67
2022/02/18 05:32:38;;;;;;;18.53;4.40;;;;;;;;;;5047814;28;20251;-67
2022/02/18 05:35:04;;;;;;;18.23;4.10;;;;;;;;;;5051316;28;20186;-67
2022/02/18 05:37:29;;;;;;;26.90;4.37;;;;;;;;;;5048448;28;20195;-67
2022/02/18 05:39:54;;;;;;;25.40;4.77;;;;;;;;;;5049954;28;20269;-67
2022/02/18 05:42:20;;;;;;;21.13;4.10;;;;;;;;;;5050855;28;20189;-67
2022/02/18 05:44:45;;;;;;;24.40;3.80;;;;;;;;;;5052886;28;20279;-67
2022/02/18 05:47:10;;;;;;;30.10;4.47;;;;;;;;;;5048623;28;20253;-67
2022/02/18 05:49:36;;;;;;;20.87;3.70;;;;;;;;;;5048090;28;20177;-67
2022/02/18 05:52:01;;;;;;;20.87;3.73;;;;;;;;;;5048743;28;20192;-69
2022/02/18 05:54:27;;;;;;;31.67;4.30;;;;;;;;;;5047413;28;20259;-68
2022/02/18 05:56:52;;;;;;;24.43;3.80;;;;;;;;;;5044358;28;20261;-68
2022/02/18 05:59:19;;;;;;;23.33;3.73;;;;;;;;;;5047017;28;20181;-68
2022/02/18 06:01:45;;;;;;;18.40;3.60;;;;;;;;;;5049443;28;20657;-68
2022/02/18 06:04:11;;;;;;;27.23;4.50;;;;;;;;;;5050123;28;20187;-68
2022/02/18 06:06:38;;;;;;;24.80;3.53;;;;;;;;;;5047902;28;20201;-68
2022/02/18 06:09:03;;;;;;;25.83;4.07;;;;;;;;;;5040780;28;20548;-68
2022/02/18 06:11:28;;;;;;;26.60;3.43;;;;;;;;;;5045599;28;20197;-68
2022/02/18 06:13:56;;;;;;;25.40;3.83;;;;;;;;;;5051051;28;20220;-68
2022/02/18 06:16:21;;;;;;;21.53;3.13;;;;;;;;;;5049137;28;20197;-68
2022/02/18 06:18:47;;;;;;;25.83;3.53;;;;;;;;;;5052433;28;20193;-68
2022/02/18 06:21:12;;;;;;;30.57;3.50;;;;;;;;;;5048940;28;20207;-68
2022/02/18 06:23:37;;;;;;;24.17;3.30;;;;;;;;;;5047153;28;20199;-68
2022/02/18 06:26:03;;;;;;;24.90;3.57;;;;;;;;;;5048657;28;20694;-68
2022/02/18 06:28:28;;;;;;;32.30;4.27;;;;;;;;;;5047765;28;20204;-68
2022/02/18 06:30:53;;;;;;;23.03;3.63;;;;;;;;;;5042578;28;20220;-68
2022/02/18 06:33:18;;;;;;;32.17;3.60;;;;;;;;;;5046446;28;20188;-68
2022/02/18 06:35:44;;;;;;;22.07;3.77;;;;;;;;;;5043408;28;20276;-68
2022/02/18 06:38:11;;;;;;;30.13;3.30;;;;;;;;;;5045986;28;20550;-68
2022/02/18 06:40:36;;;;;;;24.73;3.73;;;;;;;;;;5043758;28;20182;-68
2022/02/18 06:43:02;;;;;;;25.77;3.90;;;;;;;;;;5037972;28;20193;-68
2022/02/18 06:45:27;;;;;;;21.00;3.60;;;;;;;;;;5041762;28;20227;-68
2022/02/18 06:47:53;;;;;;;26.80;3.50;;;;;;;;;;5039336;28;20220;-68
2022/02/18 06:50:19;;;;;;;19.40;3.53;;;;;;;;;;5045689;28;20179;-68
2022/02/18 06:52:46;;;;;;;27.10;3.53;;;;;;;;;;5045517;28;20184;-68
2022/02/18 06:55:12;;;;;;;33.53;4.20;;;;;;;;;;5048638;28;20189;-66
2022/02/18 06:57:43;;;;;;;18.33;3.33;;;;;;;;;;5046252;28;20200;-67
2022/02/18 07:00:10;;;;;;;28.33;4.23;;;;;;;;;;5042940;28;20170;-68
2022/02/18 07:02:38;;;;;;;28.13;4.63;;;;;;;;;;5042827;28;20178;-68
2022/02/18 07:05:07;;;;;;;24.27;4.20;;;;;;;;;;5055737;28;20667;-67
2022/02/18 07:07:33;;;;;;;33.27;4.33;;;;;;;;;;5044703;28;20317;-68
2022/02/18 07:09:58;;;;;;;32.50;4.10;;;;;;;;;;5051293;28;20317;-68
2022/02/18 07:12:25;;;;;;;22.37;3.67;;;;;;;;;;5045007;28;20198;-68
2022/02/18 07:14:53;;;;;;;21.23;4.13;;;;;;;;;;5043864;28;20200;-68
2022/02/18 07:17:18;;;;;;;24.83;4.00;;;;;;;;;;5043655;28;20185;-69
2022/02/18 07:19:44;;;;;;;31.23;4.80;;;;;;;;;;5048421;28;20193;-69
2022/02/18 07:22:09;;;;;;;23.50;4.57;;;;;;;;;;5040395;28;20179;-68
2022/02/18 07:24:35;;;;;;;20.23;3.90;;;;;;;;;;5038370;28;20692;-68
2022/02/18 07:27:03;;;;;;;23.80;4.10;;;;;;;;;;5045674;28;20572;-67
2022/02/18 07:29:28;;;;;;;29.03;4.57;;;;;;;;;;5043299;28;20188;-67
2022/02/18 07:31:54;;;;;;;18.20;4.03;;;;;;;;;;5044590;28;20595;-67
2022/02/18 07:34:19;;;;;;;30.03;4.90;;;;;;;;;;5042442;28;20350;-68
2022/02/18 07:36:45;;;;;;;24.85;4.47;;;;;;;;;;5051507;28;20189;-68
2022/02/18 07:39:10;;;;;;;25.47;4.67;;;;;;;;;;5044247;28;20753;-68
2022/02/18 07:41:35;;;;;;;36.07;4.87;;;;;;;;;;5047125;28;20181;-68
2022/02/18 07:44:01;;;;;;;28.52;4.45;;;;;;;;;;5041763;28;20189;-68
2022/02/18 07:46:26;;;;;;;23.80;4.63;;;;;;;;;;5042825;28;20209;-69
2022/02/18 07:48:51;;;;;;;26.60;5.22;;;;;;;;;;5042729;28;20182;-68
2022/02/18 07:51:17;;;;;;;25.77;4.45;;;;;;;;;;5056780;28;20181;-68
2022/02/18 07:53:42;;;;;;;23.02;5.07;;;;;;;;;;5042665;28;20193;-68
2022/02/18 07:56:08;;;;;;;24.92;4.13;;;;;;;;;;5053011;28;20321;-68
2022/02/18 07:58:33;;;;;;;22.15;4.30;;;;;;;;;;5045118;28;20200;-68
2022/02/18 08:00:58;;;;;;;23.17;4.07;;;;;;;;;;5047649;28;20498;-68
2022/02/18 08:03:26;;;;;;;22.58;4.93;;;;;;;;;;5047398;28;20325;-69
2022/02/18 08:05:52;;;;;;;34.97;4.32;;;;;;;;;;5052572;28;20644;-68
2022/02/18 08:08:20;;;;;;;18.63;3.45;;;;;;;;;;5045256;28;20307;-68
2022/02/18 08:10:46;;;;;;;19.33;3.63;;;;;;;;;;5052511;28;20268;-68
2022/02/18 08:13:11;;;;;;;20.23;4.20;;;;;;;;;;5043704;28;20716;-69
2022/02/18 08:15:37;;;;;;;26.67;4.35;;;;;;;;;;5052248;28;20230;-66
2022/02/18 08:18:03;;;;;;;24.63;4.93;;;;;;;;;;5045373;28;20264;-68
2022/02/18 08:20:29;;;;;;;19.58;4.38;;;;;;;;;;5046545;28;20196;-69
2022/02/18 08:22:54;;;;;;;19.17;4.90;;;;;;;;;;5048517;28;20628;-68
2022/02/18 08:25:19;;;;;;;14.10;3.90;;;;;;;;;;5043749;28;20553;-68
2022/02/18 08:27:45;;;;;;;22.00;4.67;;;;;;;;;;5045408;28;20224;-68
2022/02/18 08:30:12;;;;;;;23.97;5.10;;;;;;;;;;5044027;28;20190;-68
2022/02/18 08:32:38;;;;;;;20.95;4.75;;;;;;;;;;5054780;28;20669;-68
2022/02/18 08:35:03;;;;;;;17.05;5.15;;;;;;;;;;5042642;28;20205;-68
2022/02/18 08:37:29;;;;;;;25.33;5.45;;;;;;;;;;5055459;28;20565;-68
2022/02/18 08:39:54;;;;;;;23.95;6.07;;;;;;;;;;5044575;28;20192;-69
2022/02/18 08:42:19;;;;;;;29.92;5.78;;;;;;;;;;5043966;28;20559;-68
2022/02/18 08:44:45;;;;;;;19.35;5.25;;;;;;;;;;5042794;28;20265;-68
2022/02/18 08:47:10;;;;;;;19.00;5.07;;;;;;;;;;5053350;28;20701;-69
2022/02/18 08:49:40;;;;;;;19.07;5.80;;;;;;;;;;5043690;28;20567;-68
2022/02/18 08:52:06;;;;;;;16.90;5.22;;;;;;;;;;5047620;28;20235;-68
2022/02/18 08:54:31;;;;;;;20.43;4.90;;;;;;;;;;5039581;28;20197;-69
2022/02/18 08:56:56;;;;;;;16.17;4.60;;;;;;;;;;5043529;28;20789;-68
2022/02/18 08:59:22;;;;;;;19.27;4.50;;;;;;;;;;5040622;28;20268;-69
2022/02/18 09:01:47;;;;;;;19.47;4.10;;;;;;;;;;5041193;28;20710;-69
2022/02/18 09:04:13;;;;;;;22.20;4.43;;;;;;;;;;5040169;28;20177;-69
2022/02/18 09:06:38;;;;;;;20.67;4.38;;;;;;;;;;5042425;28;20311;-69
2022/02/18 09:09:04;;;;;;;18.77;4.20;;;;;;;;;;5044463;28;20182;-69
2022/02/18 09:11:29;;;;;;;11.88;3.50;;;;;;;;;;5044814;28;20201;-69
2022/02/18 09:13:55;;;;;;;26.85;4.35;;;;;;;;;;5055938;28;20563;-72
2022/02/18 09:16:22;;;;;;;20.92;3.83;;;;;;;;;;5050966;28;20751;-74
2022/02/18 09:18:48;;;;;;;12.20;3.45;;;;;;;;;;5042171;28;20184;-73
2022/02/18 09:21:13;;;;;;;16.65;2.97;;;;;;;;;;5041621;28;20205;-73
2022/02/18 09:23:39;;;;;;;14.00;3.05;;;;;;;;;;5054522;28;20209;-73
2022/02/18 09:26:04;;;;;;;15.57;3.10;;;;;;;;;;5043120;28;20194;-73
2022/02/18 09:28:29;;;;;;;12.65;3.58;;;;;;;;;;5047857;28;20280;-74
2022/02/18 09:30:56;;;;;;;17.10;3.63;;;;;;;;;;5041128;28;20229;-73
2022/02/18 09:33:22;;;;;;;17.10;3.30;;;;;;;;;;5053792;28;20204;-74
2022/02/18 09:35:48;;;;;;;16.38;3.67;;;;;;;;;;5046880;28;20613;-72
2022/02/18 09:38:14;;;;;;;14.02;3.65;;;;;;;;;;5044346;28;20228;-71
2022/02/18 09:40:40;;;;;;;13.20;3.10;;;;;;;;;;5041254;28;20186;-71
2022/02/18 09:43:06;;;;;;;14.45;2.80;;;;;;;;;;5044907;28;20242;-71
2022/02/18 09:45:32;;;;;;;16.75;3.75;;;;;;;;;;5042092;28;20177;-70
2022/02/18 09:47:58;;;;;;;18.98;2.97;;;;;;;;;;5047681;28;20215;-70
2022/02/18 09:50:25;;;;;;;24.20;4.47;;;;;;;;;;5044192;28;20190;-70
2022/02/18 09:52:51;;;;;;;13.73;3.33;;;;;;;;;;5047234;28;20205;-70
2022/02/18 09:55:16;;;;;;;15.38;3.20;;;;;;;;;;5042271;28;20177;-69
2022/02/18 09:57:45;;;;;;;12.10;3.28;;;;;;;;;;5046219;28;20239;-69
2022/02/18 10:00:11;;;;;;;12.48;2.90;;;;;;;;;;5044334;28;20192;-69
2022/02/18 10:02:37;;;;;;;17.23;3.00;;;;;;;;;;5045822;28;20458;-69
2022/02/18 10:05:07;;;;;;;13.73;3.50;;;;;;;;;;5053027;28;20231;-68
2022/02/18 10:07:32;;;;;;;11.02;2.63;;;;;;;;;;5040376;28;20303;-68
2022/02/18 10:09:58;;;;;;;16.05;3.58;;;;;;;;;;5052392;28;20254;-69
2022/02/18 10:12:40;;;;;;;10.80;2.85;;;;;;;;;;5046341;28;20224;-69
2022/02/18 10:15:12;;;;;;;16.08;3.60;;;;;;;;;;5055123;28;20213;-69
2022/02/18 10:17:42;;;;;;;13.80;3.00;;;;;;;;;;5051033;28;20188;-69
2022/02/18 10:20:21;;;;;;;11.85;2.80;;;;;;;;;;5053789;28;20193;-69
2022/02/18 10:22:58;;;;;;;11.68;2.80;;;;;;;;;;5057911;28;20603;-69
2022/02/18 10:25:26;;;;;;;14.07;2.95;;;;;;;;;;5049201;28;20228;-69
2022/02/18 10:27:51;;;;;;;12.80;3.28;;;;;;;;;;5052167;28;20211;-69
2022/02/18 10:30:26;;;;;;;15.10;3.38;;;;;;;;;;5044665;28;20212;-69
2022/02/18 10:32:56;;;;;;;15.07;3.08;;;;;;;;;;5047124;28;20260;-69
2022/02/18 10:35:33;;;;;;;12.45;2.85;;;;;;;;;;5041760;28;20197;-69
2022/02/18 10:37:59;;;;;;;19.27;3.22;;;;;;;;;;5056833;28;20178;-69
2022/02/18 10:40:24;;;;;;;11.95;2.40;;;;;;;;;;5048262;28;20189;-69
2022/02/18 10:42:51;;;;;;;11.93;2.83;;;;;;;;;;5051780;28;20190;-69
2022/02/18 10:45:28;;;;;;;15.10;2.92;;;;;;;;;;5043063;28;20618;-69
2022/02/18 10:48:11;;;;;;;12.35;2.40;;;;;;;;;;5042593;28;20241;-69
2022/02/18 10:50:37;;;;;;;6.20;2.58;;;;;;;;;;5044719;28;20208;-70
2022/02/18 10:53:16;;;;;;;10.40;2.65;;;;;;;;;;5049933;28;20185;-68
2022/02/18 10:56:14;;;;;;;8.48;2.15;;;;;;;;;;5045787;28;20640;-69
2022/02/18 10:58:47;;;;;;;7.38;2.25;;;;;;;;;;5052845;28;20197;-69
2022/02/18 11:01:17;;;;;;;10.30;2.40;;;;;;;;;;5050338;28;20242;-70
2022/02/18 11:03:47;;;;;;;6.45;2.33;;;;;;;;;;5047120;28;20181;-69
2022/02/18 11:06:18;;;;;;;8.48;2.28;;;;;;;;;;5057216;28;21842;-68
2022/02/18 11:09:04;;;;;;;6.22;2.10;;;;;;;;;;5042697;28;20698;-69
2022/02/18 11:11:38;;;;;;;10.25;2.42;;;;;;;;;;5052063;28;20201;-68
2022/02/18 11:14:06;;;;;;;4.97;1.98;;;;;;;;;;5048300;28;20185;-68
2022/02/18 11:16:34;;;;;;;10.27;2.45;;;;;;;;;;5037983;28;20272;-69
2022/02/18 11:19:00;;;;;;;8.45;2.00;;;;;;;;;;5050160;28;20185;-69
2022/02/18 11:21:27;;;;;;;5.65;2.28;;;;;;;;;;5040413;28;20194;-69
2022/02/18 11:23:57;;;;;;;4.00;1.85;;;;;;;;;;5031528;28;20247;-69
2022/02/18 11:26:25;;;;;;;4.93;2.00;;;;;;;;;;5038200;28;20181;-69
2022/02/18 11:28:52;;;;;;;5.50;2.28;;;;;;;;;;5044231;28;20224;-69
2022/02/18 11:31:18;;;;;;;5.72;1.88;;;;;;;;;;5042049;28;20657;-68
2022/02/18 11:34:04;;;;;;;6.63;1.95;;;;;;;;;;5048030;28;20641;-68
2022/02/18 11:36:40;;;;;;;5.00;1.95;;;;;;;;;;5042870;28;20712;-68
2022/02/18 11:39:40;;;;;;;2.85;2.00;;;;;;;;;;5044800;28;20184;-69
2022/02/18 11:42:22;;;;;;;3.65;1.85;;;;;;;;;;5025875;28;20277;-68
2022/02/18 11:44:47;;;;;;;2.58;1.90;;;;;;;;;;5041505;28;20653;-69
2022/02/18 11:47:21;;;;;;;3.83;2.13;;;;;;;;;;5050879;28;20282;-67
2022/02/18 11:49:49;;;;;;;3.10;1.77;;;;;;;;;;5042229;28;20247;-68
2022/02/18 11:52:18;;;;;;;3.10;1.60;;;;;;;;;;5043286;28;20713;-69
2022/02/18 11:54:44;;;;;;;3.40;1.70;;;;;;;;;;5043796;28;20209;-69
2022/02/18 11:57:11;;;;;;;2.10;1.80;;;;;;;;;;5042829;28;20182;-68
2022/02/18 11:59:58;;;;;;;2.30;1.77;;;;;;;;;;5040487;28;20197;-67
2022/02/18 12:02:40;;;;;;;2.30;1.65;;;;;;;;;;5038275;28;20533;-67
2022/02/18 12:05:11;;;;;;;1.90;1.42;;;;;;;;;;5053128;28;20260;-67
2022/02/18 12:07:40;;;;;;;2.28;1.60;;;;;;;;;;5048200;28;20311;-69
2022/02/18 12:10:15;;;;;;;1.65;1.48;;;;;;;;;;5051861;28;20252;-68
2022/02/18 12:12:41;;;;;;;2.05;1.42;;;;;;;;;;5043775;28;20212;-68
2022/02/18 12:15:20;;;;;;;3.42;1.42;;;;;;;;;;5043098;28;20641;-68
2022/02/18 12:17:49;;;;;;;2.28;1.80;;;;;;;;;;5043444;28;20582;-68
2022/02/18 12:20:25;;;;;;;2.70;1.63;;;;;;;;;;5041651;28;20200;-68
2022/02/18 12:22:51;;;;;;;3.20;1.52;;;;;;;;;;5045891;28;20188;-67
2022/02/18 12:25:26;;;;;;;3.72;1.67;;;;;;;;;;5050457;28;20197;-68
2022/02/18 12:27:54;;;;;;;2.88;1.45;;;;;;;;;;5046879;28;20244;-68
2022/02/18 12:30:22;;;;;;;1.88;1.60;;;;;;;;;;5041300;28;20212;-69
2022/02/18 12:32:51;;;;;;;4.00;1.45;;;;;;;;;;5053029;28;20240;-68
2022/02/18 12:35:27;;;;;;;2.63;1.15;;;;;;;;;;5043527;28;20249;-68
2022/02/18 12:37:54;;;;;;;1.42;1.30;;;;;;;;;;5036456;28;20185;-67
2022/02/18 12:40:19;;;;;;;1.30;1.10;;;;;;;;;;5042073;28;20665;-67
2022/02/18 12:42:46;;;;;;;3.70;1.55;;;;;;;;;;5046861;28;20223;-69
2022/02/18 12:45:12;;;;;;;1.77;1.27;;;;;;;;;;5049231;28;20580;-67
2022/02/18 12:47:42;;;;;;;3.53;1.20;;;;;;;;;;5049587;28;20213;-68
2022/02/18 12:50:11;;;;;;;1.27;1.10;;;;;;;;;;5045179;28;21078;-68
2022/02/18 12:52:38;;;;;;;1.15;1.05;;;;;;;;;;5050638;28;20189;-68
2022/02/18 12:55:09;;;;;;;1.95;0.82;;;;;;;;;;5054607;28;20200;-67
2022/02/18 12:57:38;;;;;;;1.30;0.70;;;;;;;;;;5041424;28;20196;-67
2022/02/18 13:00:11;;;;;;;2.05;0.93;;;;;;;;;;5038779;28;20205;-68
2022/02/18 13:02:44;;;;;;;0.90;0.63;;;;;;;;;;5033815;28;20290;-68
2022/02/18 13:05:12;;;;;;;1.27;0.85;;;;;;;;;;5047208;28;20173;-68
2022/02/18 13:07:46;;;;;;;1.33;0.52;;;;;;;;;;5040901;28;20213;-68
2022/02/18 13:10:19;;;;;;;1.45;0.80;;;;;;;;;;5039927;28;20284;-68
2022/02/18 13:12:51;;;;;;;0.75;0.70;;;;;;;;;;5035711;28;20182;-69
2022/02/18 13:15:20;;;;;;;0.52;0.50;;;;;;;;;;5038323;28;20664;-69
2022/02/18 13:17:48;;;;;;;0.55;0.50;;;;;;;;;;5037616;28;20182;-68
2022/02/18 13:20:35;;;;;;;1.00;0.60;;;;;;;;;;5043227;28;20555;-68
2022/02/18 13:23:05;;;;;;;1.25;0.57;;;;;;;;;;5044911;28;20185;-68
2022/02/18 13:25:33;;;;;;;2.78;0.60;;;;;;;;;;5051076;28;20659;-69
2022/02/18 13:28:03;;;;;;;0.80;0.68;;;;;;;;;;5045616;28;20209;-69
2022/02/18 13:30:31;;;;;;;2.35;0.60;;;;;;;;;;5038718;28;20585;-70
2022/02/18 13:33:04;;;;;;;2.30;0.65;;;;;;;;;;5043962;28;20246;-69
2022/02/18 13:35:31;;;;;;;0.98;0.65;;;;;;;;;;5041002;28;20711;-69
2022/02/18 13:37:56;;;;;;;0.52;0.50;;;;;;;;;;5042496;28;20535;-70
2022/02/18 13:40:26;;;;;;;2.33;0.50;;;;;;;;;;5042975;28;20234;-73
2022/02/18 13:42:58;;;;;;;2.28;0.55;;;;;;;;;;5041061;28;20193;-73
2022/02/18 13:45:24;;;;;;;0.70;0.60;;;;;;;;;;5042040;28;20386;-71
2022/02/18 13:47:49;;;;;;;1.40;0.50;;;;;;;;;;5043098;28;20225;-71
2022/02/18 13:50:16;;;;;;;1.23;0.38;;;;;;;;;;5043815;28;20270;-70
2022/02/18 13:52:42;;;;;;;3.90;0.52;;;;;;;;;;5050577;28;20213;-70
2022/02/18 13:55:10;;;;;;;1.73;0.40;;;;;;;;;;5042283;28;20339;-69
2022/02/18 13:57:36;;;;;;;1.42;0.57;;;;;;;;;;5046484;28;20554;-69
2022/02/18 14:00:05;;;;;;;3.78;0.50;;;;;;;;;;5045393;28;20181;-69
2022/02/18 14:02:31;;;;;;;2.13;0.40;;;;;;;;;;5045984;28;20189;-68
2022/02/18 14:04:57;;;;;;;2.22;0.57;;;;;;;;;;5042762;28;20727;-70
2022/02/18 14:07:28;;;;;;;1.33;0.60;;;;;;;;;;5041243;28;20229;-70
2022/02/18 14:09:57;;;;;;;3.85;0.50;;;;;;;;;;5046765;28;20672;-69
2022/02/18 14:12:54;;;;;;;3.80;0.50;;;;;;;;;;5046734;28;20610;-69
2022/02/18 14:15:26;;;;;;;4.07;0.70;;;;;;;;;;5040279;28;20173;-70
2022/02/18 14:17:51;;;;;;;2.65;0.47;;;;;;;;;;5042439;28;20487;-70
2022/02/18 14:20:18;;;;;;;4.25;0.60;;;;;;;;;;5059286;28;20181;-69
2022/02/18 14:22:45;;;;;;;3.22;0.40;;;;;;;;;;5048757;28;20206;-69
2022/02/18 14:25:30;;;;;;;2.85;0.57;;;;;;;;;;5056954;28;20598;-68
2022/02/18 14:27:56;;;;;;;3.65;0.50;;;;;;;;;;5045405;28;20205;-69
2022/02/18 14:30:35;;;;;;;4.90;0.75;;;;;;;;;;5044907;28;20709;-68
2022/02/18 14:33:00;;;;;;;3.20;0.63;;;;;;;;;;5044620;28;20177;-68
2022/02/18 14:35:26;;;;;;;4.38;0.73;;;;;;;;;;5047751;28;20748;-68